createdAt,value
2019-03-03T00:00:32.330Z,71.42
2019-03-03T00:01:32.420Z,71.52
2019-03-03T00:02:32.444Z,71.81
2019-03-03T00:03:32.724Z,71.81
2019-03-03T00:04:32.511Z,71.61
2019-03-03T00:05:32.535Z,71.81
2019-03-03T00:06:32.515Z,71.91
2019-03-03T00:07:32.545Z,71.61
2019-03-03T00:09:32.658Z,71.81
2019-03-03T00:10:32.992Z,71.71
2019-03-03T00:11:32.666Z,71.71
2019-03-03T00:12:32.762Z,71.81
2019-03-03T00:13:32.882Z,71.81
2019-03-03T00:14:32.766Z,71.81
2019-03-03T00:15:32.842Z,71.71
2019-03-03T00:17:32.906Z,71.61
2019-03-03T00:18:33.247Z,71.61
2019-03-03T00:19:33.023Z,71.81
2019-03-03T00:20:32.997Z,71.81
2019-03-03T00:21:33.343Z,71.91
2019-03-03T00:22:33.011Z,72.09
2019-03-03T00:23:33.095Z,71.71
2019-03-03T00:24:33.078Z,71.42
2019-03-03T00:25:33.556Z,71.61
2019-03-03T00:26:33.143Z,71.52
2019-03-03T00:27:33.166Z,71.33
2019-03-03T00:28:33.253Z,71.52
2019-03-03T00:29:33.278Z,71.52
2019-03-03T00:30:33.257Z,71.33
2019-03-03T00:31:33.288Z,71.23
2019-03-03T00:32:33.615Z,71.52
2019-03-03T00:33:33.354Z,71.61
2019-03-03T00:34:33.427Z,71.61
2019-03-03T00:35:33.463Z,71.52
2019-03-03T00:36:33.453Z,71.52
2019-03-03T00:37:33.527Z,71.61
2019-03-03T00:38:33.551Z,71.42
2019-03-03T00:39:33.538Z,71.81
2019-03-03T00:40:33.626Z,71.71
2019-03-03T00:42:33.624Z,71.61
2019-03-03T00:43:33.657Z,71.52
2019-03-03T00:45:33.775Z,71.71
2019-03-03T00:46:34.112Z,71.61
2019-03-03T00:47:33.802Z,71.52
2019-03-03T00:48:33.824Z,71.52
2019-03-03T00:49:33.903Z,71.52
2019-03-03T00:50:33.928Z,71.52
2019-03-03T00:51:33.903Z,71.71
2019-03-03T00:53:34.001Z,71.52
2019-03-03T00:54:34.352Z,71.61
2019-03-03T00:55:34.079Z,71.61
2019-03-03T00:56:34.214Z,71.42
2019-03-03T00:57:34.150Z,71.42
2019-03-03T00:58:34.182Z,71.42
2019-03-03T00:59:34.164Z,72.00
2019-03-03T01:00:34.196Z,72.00
2019-03-03T01:01:34.572Z,72.38
2019-03-03T01:02:34.249Z,72.29
2019-03-03T01:04:34.316Z,71.81
2019-03-03T01:05:34.343Z,72.19
2019-03-03T01:06:34.429Z,72.29
2019-03-03T01:07:34.457Z,72.48
2019-03-03T01:08:34.736Z,72.19
2019-03-03T01:09:34.518Z,72.09
2019-03-03T01:10:34.517Z,72.00
2019-03-03T01:11:34.585Z,72.19
2019-03-03T01:12:34.569Z,72.00
2019-03-03T01:13:34.643Z,72.00
2019-03-03T01:14:34.623Z,71.91
2019-03-03T01:15:35.114Z,72.09
2019-03-03T01:16:34.733Z,72.00
2019-03-03T01:17:34.768Z,71.91
2019-03-03T01:18:34.746Z,72.00
2019-03-03T01:19:34.830Z,71.91
2019-03-03T01:20:34.856Z,72.29
2019-03-03T01:21:34.886Z,72.19
2019-03-03T01:22:35.171Z,72.19
2019-03-03T01:24:34.981Z,71.91
2019-03-03T01:25:35.017Z,72.29
2019-03-03T01:26:35.041Z,71.91
2019-03-03T01:27:35.024Z,72.19
2019-03-03T01:28:35.411Z,72.29
2019-03-03T01:29:35.153Z,72.09
2019-03-03T01:30:35.116Z,72.09
2019-03-03T01:32:35.180Z,72.00
2019-03-03T01:34:35.288Z,71.91
2019-03-03T01:35:35.577Z,72.19
2019-03-03T01:36:35.316Z,71.91
2019-03-03T01:37:35.388Z,72.48
2019-03-03T01:39:35.456Z,71.91
2019-03-03T01:40:35.430Z,72.00
2019-03-03T01:41:35.811Z,72.48
2019-03-03T01:42:35.492Z,72.00
2019-03-03T01:43:35.550Z,72.19
2019-03-03T01:44:35.604Z,71.81
2019-03-03T01:45:35.639Z,71.81
2019-03-03T01:46:35.670Z,71.91
2019-03-03T01:47:35.945Z,72.00
2019-03-03T01:48:35.691Z,71.91
2019-03-03T01:49:35.725Z,72.09
2019-03-03T01:50:35.793Z,72.00
2019-03-03T01:51:35.825Z,72.00
2019-03-03T01:52:35.854Z,72.19
2019-03-03T01:53:35.836Z,71.91
2019-03-03T01:54:36.226Z,72.29
2019-03-03T01:55:35.943Z,72.29
2019-03-03T01:56:35.976Z,72.00
2019-03-03T01:57:36.004Z,72.09
2019-03-03T01:58:35.995Z,72.09
2019-03-03T01:59:36.014Z,72.13
2019-03-03T02:00:36.044Z,72.29
2019-03-03T02:01:36.435Z,72.09
2019-03-03T02:02:36.161Z,72.00
2019-03-03T02:03:36.138Z,72.09
2019-03-03T02:05:36.254Z,72.03
2019-03-03T02:06:36.282Z,71.91
2019-03-03T02:07:36.311Z,71.91
2019-03-03T02:08:36.593Z,72.00
2019-03-03T02:09:36.330Z,72.09
2019-03-03T02:10:36.362Z,72.09
2019-03-03T02:12:36.483Z,72.03
2019-03-03T02:13:36.513Z,72.00
2019-03-03T02:14:36.534Z,72.09
2019-03-03T02:15:36.883Z,71.91
2019-03-03T02:16:36.543Z,72.00
2019-03-03T02:17:36.633Z,72.03
2019-03-03T02:18:36.659Z,71.61
2019-03-03T02:19:36.712Z,72.03
2019-03-03T02:20:36.669Z,72.00
2019-03-03T02:22:36.787Z,72.00
2019-03-03T02:23:37.112Z,72.09
2019-03-03T02:24:36.801Z,72.03
2019-03-03T02:25:36.870Z,72.00
2019-03-03T02:26:37.004Z,71.91
2019-03-03T02:27:36.903Z,72.09
2019-03-03T02:28:36.975Z,72.13
2019-03-03T02:29:36.960Z,72.13
2019-03-03T02:30:37.281Z,71.61
2019-03-03T02:31:37.007Z,72.00
2019-03-03T02:32:37.054Z,72.03
2019-03-03T02:33:37.129Z,72.00
2019-03-03T02:35:37.139Z,72.00
2019-03-03T02:36:37.216Z,72.00
2019-03-03T02:37:37.558Z,72.00
2019-03-03T02:38:37.233Z,72.13
2019-03-03T02:39:37.310Z,72.09
2019-03-03T02:40:37.293Z,72.00
2019-03-03T02:41:37.323Z,72.00
2019-03-03T02:42:37.357Z,72.13
2019-03-03T02:43:37.383Z,71.91
2019-03-03T02:45:37.759Z,72.00
2019-03-03T02:46:37.490Z,72.00
2019-03-03T02:47:37.555Z,72.00
2019-03-03T02:48:37.589Z,71.94
2019-03-03T02:49:37.621Z,72.48
2019-03-03T02:50:37.600Z,72.52
2019-03-03T02:51:37.688Z,72.19
2019-03-03T02:52:38.024Z,72.38
2019-03-03T02:53:37.805Z,72.38
2019-03-03T02:54:37.780Z,72.52
2019-03-03T02:55:37.811Z,72.38
2019-03-03T02:56:38.151Z,72.77
2019-03-03T02:57:37.849Z,72.52
2019-03-03T02:58:37.903Z,72.77
2019-03-03T02:59:38.234Z,72.71
2019-03-03T03:00:37.908Z,72.29
2019-03-03T03:01:38.004Z,72.77
2019-03-03T03:02:37.976Z,72.29
2019-03-03T03:03:38.005Z,72.29
2019-03-03T03:04:38.088Z,72.58
2019-03-03T03:06:38.230Z,72.42
2019-03-03T03:07:38.497Z,72.29
2019-03-03T03:09:38.242Z,72.48
2019-03-03T03:10:38.347Z,72.52
2019-03-03T03:12:38.285Z,72.80
2019-03-03T03:13:38.379Z,72.80
2019-03-03T03:14:38.694Z,72.58
2019-03-03T03:15:40.493Z,72.42
2019-03-03T03:16:38.409Z,72.61
2019-03-03T03:17:38.487Z,72.42
2019-03-03T03:18:38.483Z,72.80
2019-03-03T03:19:38.550Z,72.61
2019-03-03T03:20:38.579Z,72.52
2019-03-03T03:21:38.914Z,72.80
2019-03-03T03:22:38.604Z,72.52
2019-03-03T03:23:38.734Z,72.48
2019-03-03T03:24:38.666Z,72.71
2019-03-03T03:25:38.737Z,72.71
2019-03-03T03:26:38.771Z,72.77
2019-03-03T03:27:38.760Z,72.80
2019-03-03T03:28:39.132Z,72.52
2019-03-03T03:29:38.864Z,72.71
2019-03-03T03:30:38.902Z,72.80
2019-03-03T03:31:38.892Z,72.48
2019-03-03T03:32:38.907Z,72.32
2019-03-03T03:33:38.982Z,72.67
2019-03-03T03:34:39.014Z,72.61
2019-03-03T03:35:39.352Z,72.61
2019-03-03T03:36:39.030Z,72.61
2019-03-03T03:37:39.112Z,72.32
2019-03-03T03:38:39.147Z,72.61
2019-03-03T03:39:39.157Z,72.32
2019-03-03T03:40:39.207Z,72.67
2019-03-03T03:41:39.241Z,72.61
2019-03-03T03:42:39.569Z,72.29
2019-03-03T03:43:39.249Z,72.32
2019-03-03T03:44:39.287Z,72.29
2019-03-03T03:45:39.357Z,72.42
2019-03-03T03:46:39.395Z,72.52
2019-03-03T03:47:39.420Z,72.38
2019-03-03T03:48:39.421Z,72.42
2019-03-03T03:49:39.785Z,72.52
2019-03-03T03:50:39.529Z,72.52
2019-03-03T03:51:39.504Z,72.52
2019-03-03T03:52:39.576Z,72.42
2019-03-03T03:53:39.604Z,72.42
2019-03-03T03:54:39.590Z,72.42
2019-03-03T03:55:39.615Z,72.42
2019-03-03T03:56:39.999Z,72.61
2019-03-03T03:57:39.732Z,72.67
2019-03-03T03:58:39.714Z,72.61
2019-03-03T04:00:39.822Z,72.61
2019-03-03T04:01:39.868Z,72.13
2019-03-03T04:02:39.890Z,72.23
2019-03-03T04:03:40.172Z,72.71
2019-03-03T04:04:39.961Z,72.71
2019-03-03T04:05:39.993Z,72.13
2019-03-03T04:06:40.010Z,72.32
2019-03-03T04:07:40.044Z,72.42
2019-03-03T04:08:40.022Z,72.42
2019-03-03T04:09:40.102Z,72.23
2019-03-03T04:10:40.448Z,72.32
2019-03-03T04:11:40.163Z,72.52
2019-03-03T04:12:40.154Z,72.90
2019-03-03T04:13:40.233Z,72.71
2019-03-03T04:14:40.256Z,72.67
2019-03-03T04:15:40.297Z,72.32
2019-03-03T04:16:40.273Z,72.32
2019-03-03T04:17:40.658Z,72.32
2019-03-03T04:18:40.382Z,72.52
2019-03-03T04:19:40.384Z,72.38
2019-03-03T04:20:40.474Z,72.42
2019-03-03T04:21:40.481Z,72.52
2019-03-03T04:22:40.505Z,72.52
2019-03-03T04:23:40.495Z,72.23
2019-03-03T04:24:40.532Z,72.13
2019-03-03T04:25:40.609Z,72.32
2019-03-03T04:26:40.639Z,72.42
2019-03-03T04:27:40.669Z,72.32
2019-03-03T04:28:40.698Z,72.32
2019-03-03T04:29:40.729Z,72.52
2019-03-03T04:30:41.004Z,72.42
2019-03-03T04:31:40.736Z,72.42
2019-03-03T04:32:40.819Z,72.23
2019-03-03T04:33:40.853Z,72.32
2019-03-03T04:35:40.863Z,72.42
2019-03-03T04:36:41.251Z,72.32
2019-03-03T04:37:40.923Z,72.23
2019-03-03T04:38:40.954Z,72.42
2019-03-03T04:39:40.993Z,72.13
2019-03-03T04:40:41.069Z,72.42
2019-03-03T04:41:41.099Z,72.71
2019-03-03T04:42:41.137Z,72.80
2019-03-03T04:43:41.160Z,72.71
2019-03-03T04:44:41.142Z,72.23
2019-03-03T04:45:41.222Z,72.42
2019-03-03T04:46:41.203Z,72.71
2019-03-03T04:47:41.234Z,72.61
2019-03-03T04:48:41.563Z,72.52
2019-03-03T04:49:41.355Z,72.32
2019-03-03T04:51:41.437Z,72.23
2019-03-03T04:52:41.386Z,72.42
2019-03-03T04:53:41.484Z,72.42
2019-03-03T04:54:41.459Z,72.32
2019-03-03T04:55:41.488Z,72.52
2019-03-03T04:56:41.590Z,72.42
2019-03-03T04:57:41.612Z,72.52
2019-03-03T04:58:41.582Z,72.52
2019-03-03T04:59:41.664Z,72.42
2019-03-03T05:00:41.645Z,72.32
2019-03-03T05:01:42.034Z,72.42
2019-03-03T05:02:41.756Z,72.13
2019-03-03T05:03:41.737Z,72.42
2019-03-03T05:04:41.812Z,72.23
2019-03-03T05:05:41.852Z,72.32
2019-03-03T05:07:41.869Z,72.03
2019-03-03T05:09:42.275Z,72.03
2019-03-03T05:10:42.013Z,72.03
2019-03-03T05:11:41.992Z,72.32
2019-03-03T05:12:42.068Z,72.13
2019-03-03T05:13:42.047Z,72.13
2019-03-03T05:14:42.132Z,72.13
2019-03-03T05:15:42.153Z,72.03
2019-03-03T05:16:42.490Z,72.03
2019-03-03T05:17:42.223Z,71.94
2019-03-03T05:18:42.255Z,72.23
2019-03-03T05:19:42.228Z,72.23
2019-03-03T05:20:42.315Z,72.13
2019-03-03T05:21:42.345Z,71.94
2019-03-03T05:22:42.372Z,71.84
2019-03-03T05:23:42.654Z,71.94
2019-03-03T05:24:42.437Z,71.94
2019-03-03T05:25:42.422Z,72.03
2019-03-03T05:26:42.454Z,72.03
2019-03-03T05:27:42.482Z,71.75
2019-03-03T05:28:42.559Z,72.03
2019-03-03T05:29:42.598Z,72.03
2019-03-03T05:30:42.926Z,72.13
2019-03-03T05:31:42.606Z,71.94
2019-03-03T05:32:42.692Z,72.03
2019-03-03T05:34:42.749Z,72.03
2019-03-03T05:36:42.808Z,72.13
2019-03-03T05:37:43.162Z,72.13
2019-03-03T05:38:42.823Z,72.23
2019-03-03T05:39:42.857Z,72.23
2019-03-03T05:41:42.965Z,72.13
2019-03-03T05:42:43.023Z,72.03
2019-03-03T05:43:42.992Z,72.13
2019-03-03T05:44:43.314Z,72.03
2019-03-03T05:45:43.095Z,72.03
2019-03-03T05:46:43.070Z,72.23
2019-03-03T05:47:43.152Z,71.94
2019-03-03T05:48:43.191Z,72.13
2019-03-03T05:49:43.169Z,72.23
2019-03-03T05:50:43.215Z,72.13
2019-03-03T05:51:43.582Z,72.13
2019-03-03T05:52:43.313Z,72.03
2019-03-03T05:53:43.353Z,72.13
2019-03-03T05:54:43.377Z,72.03
2019-03-03T05:55:43.367Z,72.23
2019-03-03T05:56:43.394Z,72.42
2019-03-03T05:57:43.470Z,72.42
2019-03-03T05:58:43.502Z,72.32
2019-03-03T05:59:43.476Z,72.42
2019-03-03T06:00:43.510Z,72.42
2019-03-03T06:01:43.588Z,72.32
2019-03-03T06:02:43.571Z,72.52
2019-03-03T06:03:43.968Z,72.61
2019-03-03T06:04:43.628Z,72.32
2019-03-03T06:05:43.677Z,72.32
2019-03-03T06:06:43.739Z,72.32
2019-03-03T06:07:43.793Z,72.42
2019-03-03T06:08:43.759Z,72.52
2019-03-03T06:09:44.162Z,72.03
2019-03-03T06:10:43.822Z,72.32
2019-03-03T06:11:43.859Z,72.23
2019-03-03T06:12:43.939Z,72.23
2019-03-03T06:13:43.970Z,72.03
2019-03-03T06:15:44.022Z,72.03
2019-03-03T06:16:44.339Z,72.03
2019-03-03T06:17:44.036Z,71.84
2019-03-03T06:18:44.120Z,71.94
2019-03-03T06:19:44.102Z,72.13
2019-03-03T06:20:44.204Z,72.23
2019-03-03T06:21:44.230Z,72.13
2019-03-03T06:22:44.203Z,72.32
2019-03-03T06:23:44.576Z,72.23
2019-03-03T06:24:44.252Z,71.84
2019-03-03T06:25:44.357Z,71.84
2019-03-03T06:26:44.374Z,72.23
2019-03-03T06:27:44.349Z,72.23
2019-03-03T06:28:44.379Z,72.03
2019-03-03T06:29:44.462Z,71.84
2019-03-03T06:30:44.445Z,72.42
2019-03-03T06:31:44.524Z,72.23
2019-03-03T06:32:44.506Z,72.23
2019-03-03T06:33:44.590Z,72.13
2019-03-03T06:34:44.583Z,72.13
2019-03-03T06:35:44.608Z,72.03
2019-03-03T06:36:44.976Z,72.03
2019-03-03T06:37:44.712Z,72.13
2019-03-03T06:38:44.738Z,72.13
2019-03-03T06:40:44.757Z,71.94
2019-03-03T06:41:44.832Z,71.94
2019-03-03T06:42:44.862Z,72.13
2019-03-03T06:43:44.895Z,72.13
2019-03-03T06:44:44.876Z,72.13
2019-03-03T06:45:44.905Z,71.94
2019-03-03T06:46:44.942Z,72.03
2019-03-03T06:47:44.995Z,71.65
2019-03-03T06:48:45.064Z,72.03
2019-03-03T06:49:45.382Z,71.65
2019-03-03T06:50:45.113Z,72.13
2019-03-03T06:52:45.125Z,72.03
2019-03-03T06:53:45.213Z,71.94
2019-03-03T06:54:45.247Z,72.03
2019-03-03T06:55:45.567Z,71.94
2019-03-03T06:56:45.299Z,72.03
2019-03-03T06:57:45.334Z,72.03
2019-03-03T06:58:45.316Z,71.65
2019-03-03T06:59:45.392Z,71.55
2019-03-03T07:00:45.382Z,71.75
2019-03-03T07:01:45.419Z,71.84
2019-03-03T07:02:45.500Z,71.55
2019-03-03T07:03:45.476Z,71.55
2019-03-03T07:04:45.617Z,71.46
2019-03-03T07:05:45.596Z,71.46
2019-03-03T07:06:45.612Z,71.55
2019-03-03T07:07:45.955Z,71.65
2019-03-03T07:08:45.680Z,71.46
2019-03-03T07:09:45.656Z,71.55
2019-03-03T07:10:45.684Z,71.46
2019-03-03T07:11:45.722Z,71.65
2019-03-03T07:12:45.803Z,71.65
2019-03-03T07:13:45.780Z,71.46
2019-03-03T07:14:46.183Z,71.55
2019-03-03T07:15:45.874Z,72.13
2019-03-03T07:16:45.933Z,72.32
2019-03-03T07:17:45.985Z,72.23
2019-03-03T07:18:45.950Z,72.32
2019-03-03T07:19:45.974Z,72.23
2019-03-03T07:21:46.087Z,72.23
2019-03-03T07:22:46.119Z,72.03
2019-03-03T07:23:46.094Z,72.03
2019-03-03T07:24:46.131Z,72.42
2019-03-03T07:25:46.167Z,72.61
2019-03-03T07:26:46.191Z,72.42
2019-03-03T07:27:46.298Z,72.03
2019-03-03T07:28:46.605Z,71.94
2019-03-03T07:29:46.336Z,71.94
2019-03-03T07:30:46.316Z,72.03
2019-03-03T07:31:46.363Z,72.13
2019-03-03T07:32:46.444Z,72.03
2019-03-03T07:33:46.463Z,72.13
2019-03-03T07:34:47.102Z,72.13
2019-03-03T07:35:46.779Z,71.55
2019-03-03T07:36:46.498Z,71.55
2019-03-03T07:37:46.583Z,71.65
2019-03-03T07:39:46.651Z,71.46
2019-03-03T07:40:46.630Z,71.55
2019-03-03T07:41:46.717Z,71.55
2019-03-03T07:43:47.075Z,71.46
2019-03-03T07:44:46.751Z,71.55
2019-03-03T07:45:46.834Z,71.36
2019-03-03T07:46:46.815Z,71.55
2019-03-03T07:47:46.845Z,71.26
2019-03-03T07:49:46.912Z,71.94
2019-03-03T07:50:46.995Z,71.75
2019-03-03T07:51:46.974Z,72.13
2019-03-03T07:52:47.019Z,71.75
2019-03-03T07:53:47.079Z,71.55
2019-03-03T07:54:47.117Z,71.84
2019-03-03T07:55:47.101Z,71.84
2019-03-03T07:56:47.473Z,71.65
2019-03-03T07:57:47.159Z,71.46
2019-03-03T07:58:47.256Z,71.36
2019-03-03T07:59:47.236Z,71.17
2019-03-03T08:00:47.252Z,71.36
2019-03-03T08:01:47.311Z,70.98
2019-03-03T08:02:47.310Z,71.08
2019-03-03T08:03:47.725Z,70.98
2019-03-03T08:04:47.431Z,71.08
2019-03-03T08:05:47.460Z,70.50
2019-03-03T08:06:47.435Z,70.50
2019-03-03T08:07:47.475Z,70.59
2019-03-03T08:08:47.507Z,70.50
2019-03-03T08:09:47.587Z,70.50
2019-03-03T08:10:47.955Z,70.30
2019-03-03T08:11:47.594Z,70.68
2019-03-03T08:12:47.627Z,70.50
2019-03-03T08:13:47.656Z,70.59
2019-03-03T08:14:47.744Z,70.50
2019-03-03T08:15:47.723Z,70.40
2019-03-03T08:16:47.756Z,70.50
2019-03-03T08:17:48.131Z,70.40
2019-03-03T08:18:47.830Z,70.40
2019-03-03T08:19:47.896Z,70.11
2019-03-03T08:20:47.888Z,70.01
2019-03-03T08:21:47.965Z,70.50
2019-03-03T08:22:48.028Z,70.01
2019-03-03T08:23:47.970Z,70.50
2019-03-03T08:24:48.355Z,70.50
2019-03-03T08:25:48.095Z,70.30
2019-03-03T08:26:48.122Z,70.11
2019-03-03T08:27:48.097Z,70.30
2019-03-03T08:28:48.128Z,70.40
2019-03-03T08:29:48.217Z,70.78
2019-03-03T08:30:48.342Z,70.78
2019-03-03T08:31:48.274Z,70.98
2019-03-03T08:32:48.361Z,70.59
2019-03-03T08:33:48.340Z,71.08
2019-03-03T08:34:48.366Z,71.08
2019-03-03T08:35:48.347Z,70.88
2019-03-03T08:36:48.387Z,71.17
2019-03-03T08:37:48.766Z,70.78
2019-03-03T08:38:48.448Z,70.98
2019-03-03T08:39:48.531Z,70.88
2019-03-03T08:40:48.505Z,70.98
2019-03-03T08:41:48.594Z,71.17
2019-03-03T08:42:48.617Z,70.98
2019-03-03T08:43:48.597Z,71.46
2019-03-03T08:44:48.642Z,71.17
2019-03-03T08:45:48.722Z,70.98
2019-03-03T08:46:48.727Z,70.98
2019-03-03T08:47:53.184Z,71.26
2019-03-03T08:48:48.756Z,70.98
2019-03-03T08:49:49.196Z,71.26
2019-03-03T08:50:48.820Z,71.01
2019-03-03T08:51:48.853Z,71.08
2019-03-03T08:52:48.934Z,71.17
2019-03-03T08:53:48.963Z,71.08
2019-03-03T08:54:49.306Z,71.11
2019-03-03T08:55:49.024Z,71.08
2019-03-03T08:56:49.008Z,71.20
2019-03-03T08:57:49.135Z,70.59
2019-03-03T08:58:49.078Z,70.88
2019-03-03T08:59:49.153Z,70.92
2019-03-03T09:00:49.137Z,70.88
2019-03-03T09:01:49.166Z,70.11
2019-03-03T09:02:49.541Z,70.30
2019-03-03T09:03:49.282Z,71.08
2019-03-03T09:04:49.256Z,70.40
2019-03-03T09:06:49.371Z,70.11
2019-03-03T09:07:49.355Z,70.30
2019-03-03T09:08:49.388Z,70.40
2019-03-03T09:09:49.767Z,70.92
2019-03-03T09:10:49.500Z,70.59
2019-03-03T09:11:49.477Z,70.40
2019-03-03T09:12:49.515Z,70.50
2019-03-03T09:13:49.596Z,70.62
2019-03-03T09:14:49.578Z,70.59
2019-03-03T09:15:49.669Z,71.17
2019-03-03T09:16:49.637Z,71.08
2019-03-03T09:17:49.714Z,71.11
2019-03-03T09:18:49.749Z,70.62
2019-03-03T09:19:49.734Z,70.53
2019-03-03T09:20:49.763Z,70.53
2019-03-03T09:21:49.789Z,70.43
2019-03-03T09:22:50.176Z,70.59
2019-03-03T09:23:49.857Z,70.50
2019-03-03T09:24:49.889Z,70.24
2019-03-03T09:25:49.971Z,70.53
2019-03-03T09:26:50.010Z,70.30
2019-03-03T09:27:50.031Z,70.21
2019-03-03T09:28:50.058Z,70.24
2019-03-03T09:29:50.396Z,70.40
2019-03-03T09:30:50.073Z,70.53
2019-03-03T09:31:50.156Z,70.53
2019-03-03T09:32:50.134Z,70.43
2019-03-03T09:33:50.214Z,70.21
2019-03-03T09:35:50.276Z,70.53
2019-03-03T09:36:50.412Z,70.50
2019-03-03T09:37:50.348Z,70.50
2019-03-03T09:38:50.378Z,70.50
2019-03-03T09:39:50.359Z,70.34
2019-03-03T09:40:50.443Z,70.50
2019-03-03T09:41:50.769Z,70.53
2019-03-03T09:42:50.450Z,70.59
2019-03-03T09:43:50.481Z,70.50
2019-03-03T09:44:50.513Z,70.50
2019-03-03T09:45:50.591Z,70.53
2019-03-03T09:46:50.579Z,70.53
2019-03-03T09:47:50.956Z,70.59
2019-03-03T09:48:50.681Z,70.43
2019-03-03T09:49:50.726Z,70.40
2019-03-03T09:50:50.747Z,70.62
2019-03-03T09:51:50.733Z,70.40
2019-03-03T09:52:50.773Z,70.30
2019-03-03T09:53:50.847Z,70.53
2019-03-03T09:54:51.182Z,70.40
2019-03-03T09:55:50.918Z,70.53
2019-03-03T09:56:50.945Z,70.34
2019-03-03T09:57:50.930Z,70.43
2019-03-03T09:58:51.003Z,70.40
2019-03-03T09:59:51.034Z,70.15
2019-03-03T10:00:51.055Z,70.53
2019-03-03T10:01:51.403Z,70.34
2019-03-03T10:02:51.134Z,70.53
2019-03-03T10:03:51.135Z,70.53
2019-03-03T10:04:51.160Z,70.53
2019-03-03T10:05:51.234Z,71.01
2019-03-03T10:06:51.262Z,70.92
2019-03-03T10:07:51.246Z,71.11
2019-03-03T10:08:51.624Z,70.88
2019-03-03T10:09:51.350Z,71.08
2019-03-03T10:10:51.333Z,71.08
2019-03-03T10:11:51.413Z,71.01
2019-03-03T10:12:51.398Z,70.72
2019-03-03T10:13:51.476Z,70.72
2019-03-03T10:14:51.519Z,71.11
2019-03-03T10:15:51.497Z,70.92
2019-03-03T10:16:51.565Z,70.82
2019-03-03T10:17:51.605Z,70.53
2019-03-03T10:18:51.608Z,71.20
2019-03-03T10:19:51.628Z,71.01
2019-03-03T10:20:51.648Z,71.01
2019-03-03T10:21:51.727Z,70.92
2019-03-03T10:22:51.758Z,70.92
2019-03-03T10:23:51.741Z,70.92
2019-03-03T10:24:51.778Z,70.62
2019-03-03T10:25:51.819Z,71.01
2019-03-03T10:26:51.845Z,70.72
2019-03-03T10:27:51.914Z,71.01
2019-03-03T10:28:51.903Z,70.72
2019-03-03T10:29:51.978Z,71.11
2019-03-03T10:30:52.120Z,71.01
2019-03-03T10:31:52.047Z,71.01
2019-03-03T10:32:52.024Z,70.72
2019-03-03T10:33:52.438Z,71.01
2019-03-03T10:34:52.205Z,71.20
2019-03-03T10:35:52.113Z,71.01
2019-03-03T10:36:52.166Z,71.40
2019-03-03T10:37:52.563Z,71.59
2019-03-03T10:38:52.264Z,71.30
2019-03-03T10:39:52.598Z,71.11
2019-03-03T10:40:52.277Z,70.92
2019-03-03T10:41:52.304Z,71.01
2019-03-03T10:42:55.349Z,71.40
2019-03-03T10:43:52.419Z,71.30
2019-03-03T10:44:52.557Z,71.30
2019-03-03T10:45:52.586Z,71.49
2019-03-03T10:46:52.517Z,71.59
2019-03-03T10:47:52.538Z,70.92
2019-03-03T10:48:52.586Z,71.11
2019-03-03T10:50:52.651Z,70.92
2019-03-03T10:51:52.680Z,70.72
2019-03-03T10:52:52.753Z,70.62
2019-03-03T10:53:52.751Z,71.11
2019-03-03T10:54:52.769Z,71.01
2019-03-03T10:55:52.783Z,71.30
2019-03-03T10:56:52.848Z,71.20
2019-03-03T10:57:53.177Z,70.62
2019-03-03T10:58:52.918Z,71.11
2019-03-03T10:59:55.163Z,70.92
2019-03-03T11:00:52.936Z,71.11
2019-03-03T11:02:53.147Z,70.82
2019-03-03T11:03:53.058Z,70.92
2019-03-03T11:04:53.384Z,70.82
2019-03-03T11:05:53.135Z,70.43
2019-03-03T11:06:53.107Z,70.34
2019-03-03T11:07:53.212Z,70.24
2019-03-03T11:09:53.253Z,71.30
2019-03-03T11:10:57.640Z,70.92
2019-03-03T11:11:53.634Z,71.20
2019-03-03T11:13:53.449Z,71.20
2019-03-03T11:14:53.356Z,71.59
2019-03-03T11:16:53.471Z,71.49
2019-03-03T11:17:53.514Z,71.30
2019-03-03T11:18:56.273Z,71.40
2019-03-03T11:19:53.559Z,71.49
2019-03-03T11:20:53.581Z,71.49
2019-03-03T11:21:53.630Z,71.49
2019-03-03T11:22:53.606Z,71.30
2019-03-03T11:23:53.730Z,71.59
2019-03-03T11:24:54.037Z,71.30
2019-03-03T11:25:53.754Z,71.49
2019-03-03T11:26:53.735Z,71.30
2019-03-03T11:28:53.855Z,71.40
2019-03-03T11:30:53.861Z,71.49
2019-03-03T11:31:54.279Z,71.11
2019-03-03T11:32:54.001Z,71.49
2019-03-03T11:33:54.008Z,71.40
2019-03-03T11:34:54.083Z,71.20
2019-03-03T11:35:54.080Z,71.20
2019-03-03T11:36:54.059Z,71.49
2019-03-03T11:37:55.430Z,71.49
2019-03-03T11:38:54.259Z,71.20
2019-03-03T11:39:54.247Z,71.01
2019-03-03T11:40:54.249Z,71.20
2019-03-03T11:41:54.372Z,71.30
2019-03-03T11:42:54.240Z,71.01
2019-03-03T11:44:54.668Z,71.01
2019-03-03T11:45:54.710Z,71.01
2019-03-03T11:46:54.510Z,71.11
2019-03-03T11:48:03.891Z,71.20
2019-03-03T11:48:54.484Z,71.20
2019-03-03T11:49:54.514Z,70.72
2019-03-03T11:50:54.588Z,71.11
2019-03-03T11:51:54.962Z,71.11
2019-03-03T11:52:54.634Z,71.11
2019-03-03T11:54:54.684Z,71.01
2019-03-03T11:55:54.738Z,70.92
2019-03-03T11:56:54.742Z,70.92
2019-03-03T11:57:54.709Z,70.82
2019-03-03T11:58:55.101Z,70.92
2019-03-03T11:59:54.791Z,70.72
2019-03-03T12:00:54.815Z,71.01
2019-03-03T12:01:54.967Z,71.01
2019-03-03T12:02:54.926Z,70.72
2019-03-03T12:03:55.261Z,70.72
2019-03-03T12:04:55.004Z,70.62
2019-03-03T12:05:55.415Z,70.82
2019-03-03T12:06:55.044Z,70.92
2019-03-03T12:07:55.125Z,70.92
2019-03-03T12:08:55.104Z,71.01
2019-03-03T12:10:55.186Z,71.01
2019-03-03T12:11:55.496Z,70.92
2019-03-03T12:12:55.566Z,70.92
2019-03-03T12:14:55.254Z,70.82
2019-03-03T12:15:55.423Z,70.72
2019-03-03T12:16:55.362Z,71.11
2019-03-03T12:17:55.405Z,70.43
2019-03-03T12:18:55.427Z,70.66
2019-03-03T12:19:55.465Z,70.24
2019-03-03T12:20:55.463Z,70.43
2019-03-03T12:21:55.544Z,70.62
2019-03-03T12:22:55.560Z,70.24
2019-03-03T12:23:55.637Z,70.43
2019-03-03T12:24:55.574Z,70.53
2019-03-03T12:26:55.684Z,70.34
2019-03-03T12:27:55.675Z,70.34
2019-03-03T12:28:55.742Z,70.43
2019-03-03T12:29:55.772Z,70.62
2019-03-03T12:31:55.829Z,70.62
2019-03-03T12:32:55.897Z,69.99
2019-03-03T12:33:55.976Z,70.15
2019-03-03T12:34:55.913Z,70.18
2019-03-03T12:35:55.969Z,69.41
2019-03-03T12:36:56.379Z,69.57
2019-03-03T12:38:56.163Z,69.99
2019-03-03T12:39:56.103Z,69.79
2019-03-03T12:40:56.122Z,69.85
2019-03-03T12:41:56.168Z,69.85
2019-03-03T12:42:56.162Z,69.12
2019-03-03T12:43:56.235Z,69.38
2019-03-03T12:44:56.202Z,69.47
2019-03-03T12:45:56.583Z,69.18
2019-03-03T12:46:56.311Z,69.51
2019-03-03T12:48:56.381Z,69.31
2019-03-03T12:49:56.408Z,69.22
2019-03-03T12:50:56.450Z,69.22
2019-03-03T12:51:56.473Z,69.51
2019-03-03T12:52:56.457Z,69.41
2019-03-03T12:53:56.533Z,69.47
2019-03-03T12:54:56.596Z,68.93
2019-03-03T12:55:58.460Z,69.60
2019-03-03T12:57:56.668Z,69.22
2019-03-03T12:58:57.006Z,69.18
2019-03-03T13:00:56.761Z,69.28
2019-03-03T13:01:56.787Z,69.41
2019-03-03T13:02:56.770Z,69.31
2019-03-03T13:03:56.853Z,69.41
2019-03-03T13:04:57.193Z,69.41
2019-03-03T13:05:56.960Z,69.22
2019-03-03T13:06:57.044Z,69.22
2019-03-03T13:07:56.973Z,69.31
2019-03-03T13:08:59.859Z,69.41
2019-03-03T13:09:57.053Z,69.18
2019-03-03T13:11:57.411Z,68.93
2019-03-03T13:12:57.110Z,68.84
2019-03-03T13:13:57.191Z,69.22
2019-03-03T13:14:57.200Z,69.31
2019-03-03T13:15:57.228Z,68.84
2019-03-03T13:16:57.276Z,68.16
2019-03-03T13:17:57.337Z,68.26
2019-03-03T13:18:57.637Z,68.64
2019-03-03T13:19:57.385Z,68.74
2019-03-03T13:20:57.349Z,69.09
2019-03-03T13:21:57.488Z,68.84
2019-03-03T13:22:57.457Z,68.60
2019-03-03T13:23:57.455Z,68.80
2019-03-03T13:24:57.531Z,68.99
2019-03-03T13:25:57.877Z,68.84
2019-03-03T13:26:57.596Z,69.31
2019-03-03T13:27:57.628Z,68.84
2019-03-03T13:28:57.675Z,68.90
2019-03-03T13:29:57.680Z,68.51
2019-03-03T13:30:57.670Z,68.60
2019-03-03T13:31:57.745Z,68.41
2019-03-03T13:32:57.775Z,68.93
2019-03-03T13:33:57.813Z,68.60
2019-03-03T13:34:57.840Z,68.32
2019-03-03T13:35:57.874Z,68.60
2019-03-03T13:36:57.861Z,68.32
2019-03-03T13:37:57.941Z,68.41
2019-03-03T13:38:59.667Z,68.80
2019-03-03T13:39:57.992Z,68.60
2019-03-03T13:40:57.992Z,68.74
2019-03-03T13:41:58.063Z,68.54
2019-03-03T13:42:58.116Z,68.84
2019-03-03T13:43:58.080Z,68.60
2019-03-03T13:44:58.171Z,68.90
2019-03-03T13:45:58.529Z,68.70